sensor_id;sensor_type;location;lat;lon;timestamp;pressure;altitude;pressure_sealevel;temperature;humidity
17781;BME280;8498;52.516;13.790;2023-05-25T00:03:41;101785.56;;;11.38;83.37
17781;BME280;8498;52.516;13.790;2023-05-25T00:09:04;101789.06;;;11.39;83.66
17781;BME280;8498;52.516;13.790;2023-05-25T00:14:27;101788.22;;;11.54;83.25
17781;BME280;8498;52.516;13.790;2023-05-25T00:19:49;101786.34;;;11.56;83.03
17781;BME280;8498;52.516;13.790;2023-05-25T00:25:12;101783.69;;;11.56;82.71
17781;BME280;8498;52.516;13.790;2023-05-25T00:30:34;101786.78;;;11.49;83.19
17781;BME280;8498;52.516;13.790;2023-05-25T00:35:56;101776.22;;;11.47;82.96
17781;BME280;8498;52.516;13.790;2023-05-25T00:41:19;101783.13;;;11.34;82.83
17781;BME280;8498;52.516;13.790;2023-05-25T00:46:47;101784.06;;;11.33;83.20
17781;BME280;8498;52.516;13.790;2023-05-25T00:52:11;101785.97;;;11.31;83.15
17781;BME280;8498;52.516;13.790;2023-05-25T00:57:36;101786.13;;;11.28;83.49
17781;BME280;8498;52.516;13.790;2023-05-25T01:03:03;101784.56;;;11.24;83.29
17781;BME280;8498;52.516;13.790;2023-05-25T01:08:33;101777.53;;;11.23;83.26
17781;BME280;8498;52.516;13.790;2023-05-25T01:13:57;101777.22;;;11.12;83.30
17781;BME280;8498;52.516;13.790;2023-05-25T01:19:21;101773.19;;;11.04;83.43
17781;BME280;8498;52.516;13.790;2023-05-25T01:24:50;101789.97;;;10.89;83.67
17781;BME280;8498;52.516;13.790;2023-05-25T01:30:15;101785.25;;;10.94;83.75
17781;BME280;8498;52.516;13.790;2023-05-25T01:35:40;101788.78;;;10.78;83.80
17781;BME280;8498;52.516;13.790;2023-05-25T01:41:03;101784.94;;;10.66;84.01
17781;BME280;8498;52.516;13.790;2023-05-25T01:46:36;101789.94;;;10.55;84.50
17781;BME280;8498;52.516;13.790;2023-05-25T01:52:01;101799.00;;;10.51;83.65
17781;BME280;8498;52.516;13.790;2023-05-25T01:57:27;101797.66;;;10.42;83.40
17781;BME280;8498;52.516;13.790;2023-05-25T02:02:51;101797.78;;;10.22;84.31
17781;BME280;8498;52.516;13.790;2023-05-25T02:08:14;101791.47;;;10.24;83.57
17781;BME280;8498;52.516;13.790;2023-05-25T02:13:36;101787.66;;;10.11;84.43
17781;BME280;8498;52.516;13.790;2023-05-25T02:18:59;101779.69;;;10.11;84.55
17781;BME280;8498;52.516;13.790;2023-05-25T02:24:23;101788.03;;;10.04;84.89
17781;BME280;8498;52.516;13.790;2023-05-25T02:29:48;101786.16;;;10.06;84.40
17781;BME280;8498;52.516;13.790;2023-05-25T02:35:10;101783.84;;;9.98;84.18
17781;BME280;8498;52.516;13.790;2023-05-25T02:40:33;101789.59;;;9.89;84.01
17781;BME280;8498;52.516;13.790;2023-05-25T02:45:55;101798.75;;;9.83;83.71
17781;BME280;8498;52.516;13.790;2023-05-25T02:51:17;101790.97;;;9.79;83.78
17781;BME280;8498;52.516;13.790;2023-05-25T02:56:40;101795.66;;;9.74;84.08
17781;BME280;8498;52.516;13.790;2023-05-25T03:02:04;101801.16;;;9.69;84.26
17781;BME280;8498;52.516;13.790;2023-05-25T03:07:29;101799.44;;;9.68;84.39
17781;BME280;8498;52.516;13.790;2023-05-25T03:12:52;101796.09;;;9.65;84.22
17781;BME280;8498;52.516;13.790;2023-05-25T03:18:14;101796.09;;;9.65;84.37
17781;BME280;8498;52.516;13.790;2023-05-25T03:23:37;101794.50;;;9.61;84.76
17781;BME280;8498;52.516;13.790;2023-05-25T03:29:02;101803.25;;;9.63;84.47
17781;BME280;8498;52.516;13.790;2023-05-25T03:34:26;101806.53;;;9.68;84.39
17781;BME280;8498;52.516;13.790;2023-05-25T03:39:49;101813.56;;;9.69;84.18
17781;BME280;8498;52.516;13.790;2023-05-25T03:45:13;101808.25;;;9.69;84.47
17781;BME280;8498;52.516;13.790;2023-05-25T03:50:36;101816.34;;;9.66;84.95
17781;BME280;8498;52.516;13.790;2023-05-25T03:55:58;101824.19;;;9.69;85.35
17781;BME280;8498;52.516;13.790;2023-05-25T04:01:20;101816.72;;;9.77;85.03
17781;BME280;8498;52.516;13.790;2023-05-25T04:06:43;101822.03;;;9.77;85.58
17781;BME280;8498;52.516;13.790;2023-05-25T04:12:10;101821.69;;;9.84;85.52
17781;BME280;8498;52.516;13.790;2023-05-25T04:17:33;101826.78;;;9.89;85.52
17781;BME280;8498;52.516;13.790;2023-05-25T04:23:00;101831.75;;;9.97;85.88
17781;BME280;8498;52.516;13.790;2023-05-25T04:28:24;101836.69;;;10.04;86.37
17781;BME280;8498;52.516;13.790;2023-05-25T04:33:49;101850.16;;;10.18;87.28
17781;BME280;8498;52.516;13.790;2023-05-25T04:39:20;101842.28;;;10.36;87.55
17781;BME280;8498;52.516;13.790;2023-05-25T04:44:47;101849.66;;;10.65;87.42
17781;BME280;8498;52.516;13.790;2023-05-25T04:50:10;101848.25;;;10.92;87.39
17781;BME280;8498;52.516;13.790;2023-05-25T04:55:33;101848.59;;;11.21;86.90
17781;BME280;8498;52.516;13.790;2023-05-25T05:00:55;101845.75;;;11.41;86.34
17781;BME280;8498;52.516;13.790;2023-05-25T05:06:18;101840.72;;;11.52;86.41
17781;BME280;8498;52.516;13.790;2023-05-25T05:11:40;101846.47;;;11.60;87.08
17781;BME280;8498;52.516;13.790;2023-05-25T05:17:03;101849.72;;;11.83;87.52
17781;BME280;8498;52.516;13.790;2023-05-25T05:22:26;101850.59;;;11.99;86.96
17781;BME280;8498;52.516;13.790;2023-05-25T05:27:50;101843.44;;;12.15;85.94
17781;BME280;8498;52.516;13.790;2023-05-25T05:33:18;101849.56;;;12.33;86.29
17781;BME280;8498;52.516;13.790;2023-05-25T05:38:41;101849.81;;;12.44;86.31
17781;BME280;8498;52.516;13.790;2023-05-25T05:44:04;101863.72;;;12.49;87.21
17781;BME280;8498;52.516;13.790;2023-05-25T05:49:30;101857.84;;;12.58;86.77
17781;BME280;8498;52.516;13.790;2023-05-25T05:54:55;101865.22;;;12.69;86.04
17781;BME280;8498;52.516;13.790;2023-05-25T06:00:18;101876.06;;;12.81;86.17
17781;BME280;8498;52.516;13.790;2023-05-25T06:05:41;101877.13;;;12.93;85.67
17781;BME280;8498;52.516;13.790;2023-05-25T06:11:05;101889.56;;;13.08;87.00
17781;BME280;8498;52.516;13.790;2023-05-25T06:16:27;101882.56;;;13.21;87.00
17781;BME280;8498;52.516;13.790;2023-05-25T06:21:52;101892.78;;;13.29;86.94
17781;BME280;8498;52.516;13.790;2023-05-25T06:27:15;101891.28;;;13.39;87.25
17781;BME280;8498;52.516;13.790;2023-05-25T06:32:39;101886.81;;;13.54;87.16
17781;BME280;8498;52.516;13.790;2023-05-25T06:38:02;101889.31;;;13.85;86.16
17781;BME280;8498;52.516;13.790;2023-05-25T06:43:26;101890.56;;;14.35;83.64
17781;BME280;8498;52.516;13.790;2023-05-25T06:49:03;101894.81;;;14.93;78.01
17781;BME280;8498;52.516;13.790;2023-05-25T06:54:25;101890.47;;;15.17;76.75
17781;BME280;8498;52.516;13.790;2023-05-25T06:59:48;101897.25;;;15.35;75.79
17781;BME280;8498;52.516;13.790;2023-05-25T07:05:11;101892.03;;;15.72;73.53
17781;BME280;8498;52.516;13.790;2023-05-25T07:10:33;101880.25;;;15.87;73.00
17781;BME280;8498;52.516;13.790;2023-05-25T07:15:56;101895.38;;;16.25;69.23
17781;BME280;8498;52.516;13.790;2023-05-25T07:21:18;101887.69;;;16.44;68.03
17781;BME280;8498;52.516;13.790;2023-05-25T07:26:41;101888.81;;;16.65;67.07
17781;BME280;8498;52.516;13.790;2023-05-25T07:32:06;101889.41;;;16.81;65.52
17781;BME280;8498;52.516;13.790;2023-05-25T07:37:28;101899.03;;;17.08;63.09
17781;BME280;8498;52.516;13.790;2023-05-25T07:42:53;101892.22;;;17.26;60.79
17781;BME280;8498;52.516;13.790;2023-05-25T07:48:19;101900.41;;;17.71;59.88
17781;BME280;8498;52.516;13.790;2023-05-25T07:53:41;101904.44;;;18.21;58.08
17781;BME280;8498;52.516;13.790;2023-05-25T07:59:04;101900.16;;;18.29;55.76
17781;BME280;8498;52.516;13.790;2023-05-25T08:04:27;101908.19;;;18.41;55.15
17781;BME280;8498;52.516;13.790;2023-05-25T08:09:50;101898.56;;;18.81;54.51
17781;BME280;8498;52.516;13.790;2023-05-25T08:15:13;101902.00;;;18.83;53.12
17781;BME280;8498;52.516;13.790;2023-05-25T08:20:35;101905.22;;;18.77;53.49
17781;BME280;8498;52.516;13.790;2023-05-25T08:25:58;101887.00;;;19.22;51.06
17781;BME280;8498;52.516;13.790;2023-05-25T08:31:22;101904.84;;;19.02;50.79
17781;BME280;8498;52.516;13.790;2023-05-25T08:36:45;101892.28;;;18.92;50.20
17781;BME280;8498;52.516;13.790;2023-05-25T08:42:08;101897.78;;;19.43;51.37
17781;BME280;8498;52.516;13.790;2023-05-25T08:47:30;101900.34;;;19.44;49.77
17781;BME280;8498;52.516;13.790;2023-05-25T08:52:55;101904.28;;;19.20;49.64
17781;BME280;8498;52.516;13.790;2023-05-25T08:58:23;101904.59;;;19.58;48.70
17781;BME280;8498;52.516;13.790;2023-05-25T09:03:50;101897.56;;;20.07;45.86
17781;BME280;8498;52.516;13.790;2023-05-25T09:09:13;101898.50;;;20.76;45.70
17781;BME280;8498;52.516;13.790;2023-05-25T09:14:36;101912.03;;;20.36;47.06
17781;BME280;8498;52.516;13.790;2023-05-25T09:19:59;101909.22;;;20.07;47.29
17781;BME280;8498;52.516;13.790;2023-05-25T09:25:22;101913.94;;;20.25;46.84
17781;BME280;8498;52.516;13.790;2023-05-25T09:30:47;101905.31;;;21.19;44.27
17781;BME280;8498;52.516;13.790;2023-05-25T09:36:11;101912.84;;;21.15;43.64
17781;BME280;8498;52.516;13.790;2023-05-25T09:41:45;101917.84;;;21.20;44.24
17781;BME280;8498;52.516;13.790;2023-05-25T09:47:08;101920.34;;;20.64;45.63
17781;BME280;8498;52.516;13.790;2023-05-25T09:52:30;101917.25;;;21.36;42.84
17781;BME280;8498;52.516;13.790;2023-05-25T09:57:54;101917.28;;;22.29;41.86
17781;BME280;8498;52.516;13.790;2023-05-25T10:03:17;101909.81;;;22.58;41.00
17781;BME280;8498;52.516;13.790;2023-05-25T10:08:41;101904.75;;;22.73;40.75
17781;BME280;8498;52.516;13.790;2023-05-25T10:14:06;101919.31;;;22.90;40.80
17781;BME280;8498;52.516;13.790;2023-05-25T10:19:35;101912.41;;;22.95;39.21
17781;BME280;8498;52.516;13.790;2023-05-25T10:30:32;101906.34;;;23.89;37.58
17781;BME280;8498;52.516;13.790;2023-05-25T10:35:58;101909.81;;;22.58;38.93
17781;BME280;8498;52.516;13.790;2023-05-25T10:41:32;101911.13;;;22.54;39.61
17781;BME280;8498;52.516;13.790;2023-05-25T10:46:54;101907.13;;;23.73;39.03
17781;BME280;8498;52.516;13.790;2023-05-25T10:52:17;101894.88;;;24.29;38.54
17781;BME280;8498;52.516;13.790;2023-05-25T10:57:40;101900.09;;;24.80;36.87
17781;BME280;8498;52.516;13.790;2023-05-25T11:03:03;101896.00;;;24.76;36.90
17781;BME280;8498;52.516;13.790;2023-05-25T11:09:07;101892.00;;;23.96;37.61
17781;BME280;8498;52.516;13.790;2023-05-25T11:14:33;101893.72;;;22.75;39.55
17781;BME280;8498;52.516;13.790;2023-05-25T11:20:00;101878.47;;;24.04;37.46
17781;BME280;8498;52.516;13.790;2023-05-25T11:30:58;101894.00;;;25.35;36.24
17781;BME280;8498;52.516;13.790;2023-05-25T11:36:24;101902.84;;;25.37;36.25
17781;BME280;8498;52.516;13.790;2023-05-25T11:41:53;101883.91;;;25.92;35.95
17781;BME280;8498;52.516;13.790;2023-05-25T11:47:19;101881.66;;;24.42;38.45
17781;BME280;8498;52.516;13.790;2023-05-25T11:52:44;101888.19;;;24.73;37.47
17781;BME280;8498;52.516;13.790;2023-05-25T11:58:07;101874.50;;;23.99;38.15
17781;BME280;8498;52.516;13.790;2023-05-25T12:03:30;101880.72;;;24.75;38.24
17781;BME280;8498;52.516;13.790;2023-05-25T12:08:54;101890.38;;;23.52;39.15
17781;BME280;8498;52.516;13.790;2023-05-25T12:14:17;101875.00;;;23.60;38.91
17781;BME280;8498;52.516;13.790;2023-05-25T12:19:39;101875.22;;;24.01;38.94
17781;BME280;8498;52.516;13.790;2023-05-25T12:25:07;101870.03;;;24.90;36.93
17781;BME280;8498;52.516;13.790;2023-05-25T12:30:30;101869.56;;;25.99;34.91
17781;BME280;8498;52.516;13.790;2023-05-25T12:35:52;101868.06;;;25.88;35.80
17781;BME280;8498;52.516;13.790;2023-05-25T12:41:17;101867.78;;;26.53;33.75
17781;BME280;8498;52.516;13.790;2023-05-25T12:46:39;101864.81;;;26.62;34.42
17781;BME280;8498;52.516;13.790;2023-05-25T12:52:03;101871.97;;;25.93;34.94
17781;BME280;8498;52.516;13.790;2023-05-25T12:57:33;101869.00;;;24.17;37.94
17781;BME280;8498;52.516;13.790;2023-05-25T13:02:59;101858.97;;;23.75;39.23
17781;BME280;8498;52.516;13.790;2023-05-25T13:08:22;101867.44;;;23.02;40.67
17781;BME280;8498;52.516;13.790;2023-05-25T13:13:45;101869.63;;;22.36;42.67
17781;BME280;8498;52.516;13.790;2023-05-25T13:19:07;101866.66;;;22.02;42.84
17781;BME280;8498;52.516;13.790;2023-05-25T13:24:29;101864.34;;;22.62;43.20
17781;BME280;8498;52.516;13.790;2023-05-25T13:29:52;101863.16;;;22.64;43.08
17781;BME280;8498;52.516;13.790;2023-05-25T13:35:14;101860.78;;;22.34;43.81
17781;BME280;8498;52.516;13.790;2023-05-25T13:40:44;101854.66;;;23.56;41.53
17781;BME280;8498;52.516;13.790;2023-05-25T13:46:07;101851.16;;;24.56;39.56
17781;BME280;8498;52.516;13.790;2023-05-25T13:51:36;101848.97;;;24.84;37.89
17781;BME280;8498;52.516;13.790;2023-05-25T13:57:00;101849.13;;;24.58;38.41
17781;BME280;8498;52.516;13.790;2023-05-25T14:02:23;101835.91;;;25.12;37.46
17781;BME280;8498;52.516;13.790;2023-05-25T14:07:46;101831.28;;;25.37;37.23
17781;BME280;8498;52.516;13.790;2023-05-25T14:13:09;101831.72;;;25.73;36.39
17781;BME280;8498;52.516;13.790;2023-05-25T14:18:31;101832.78;;;25.47;36.53
17781;BME280;8498;52.516;13.790;2023-05-25T14:23:55;101837.09;;;25.89;36.73
17781;BME280;8498;52.516;13.790;2023-05-25T14:29:17;101838.72;;;25.51;37.13
17781;BME280;8498;52.516;13.790;2023-05-25T14:34:40;101829.69;;;25.58;37.72
17781;BME280;8498;52.516;13.790;2023-05-25T14:40:05;101835.19;;;25.34;38.77
17781;BME280;8498;52.516;13.790;2023-05-25T14:45:29;101833.91;;;24.23;40.34
17781;BME280;8498;52.516;13.790;2023-05-25T14:50:51;101836.84;;;23.10;42.46
17781;BME280;8498;52.516;13.790;2023-05-25T14:56:17;101840.16;;;22.68;43.49
17781;BME280;8498;52.516;13.790;2023-05-25T15:01:40;101829.56;;;22.57;44.45
17781;BME280;8498;52.516;13.790;2023-05-25T15:07:03;101833.78;;;22.24;45.41
17781;BME280;8498;52.516;13.790;2023-05-25T15:12:25;101831.78;;;22.26;45.10
17781;BME280;8498;52.516;13.790;2023-05-25T15:17:48;101826.00;;;22.39;45.28
17781;BME280;8498;52.516;13.790;2023-05-25T15:23:11;101825.16;;;22.39;45.34
17781;BME280;8498;52.516;13.790;2023-05-25T15:28:33;101825.53;;;22.97;44.24
17781;BME280;8498;52.516;13.790;2023-05-25T15:33:56;101826.16;;;23.60;42.89
17781;BME280;8498;52.516;13.790;2023-05-25T15:39:20;101831.19;;;23.81;42.62
17781;BME280;8498;52.516;13.790;2023-05-25T15:44:43;101828.84;;;24.28;42.17
17781;BME280;8498;52.516;13.790;2023-05-25T15:50:05;101832.06;;;24.24;41.95
17781;BME280;8498;52.516;13.790;2023-05-25T15:55:30;101827.59;;;24.14;41.38
17781;BME280;8498;52.516;13.790;2023-05-25T16:00:52;101822.44;;;24.45;41.21
17781;BME280;8498;52.516;13.790;2023-05-25T16:06:15;101824.31;;;24.61;40.76
17781;BME280;8498;52.516;13.790;2023-05-25T16:11:37;101824.66;;;24.66;40.12
17781;BME280;8498;52.516;13.790;2023-05-25T16:16:59;101821.97;;;24.91;39.87
17781;BME280;8498;52.516;13.790;2023-05-25T16:22:22;101810.41;;;25.05;39.60
17781;BME280;8498;52.516;13.790;2023-05-25T16:27:44;101821.25;;;24.56;40.35
17781;BME280;8498;52.516;13.790;2023-05-25T16:33:07;101816.31;;;23.33;42.87
17781;BME280;8498;52.516;13.790;2023-05-25T16:38:30;101815.59;;;22.80;43.28
17781;BME280;8498;52.516;13.790;2023-05-25T16:43:52;101813.53;;;22.64;43.79
17781;BME280;8498;52.516;13.790;2023-05-25T16:49:15;101806.81;;;23.03;42.74
17781;BME280;8498;52.516;13.790;2023-05-25T16:54:37;101809.41;;;23.13;42.39
17781;BME280;8498;52.516;13.790;2023-05-25T16:59:59;101817.66;;;22.50;42.91
17781;BME280;8498;52.516;13.790;2023-05-25T17:05:22;101798.00;;;22.30;43.26
17781;BME280;8498;52.516;13.790;2023-05-25T17:10:48;101802.81;;;21.82;44.19
17781;BME280;8498;52.516;13.790;2023-05-25T17:16:11;101799.91;;;21.66;44.64
17781;BME280;8498;52.516;13.790;2023-05-25T17:21:33;101807.13;;;21.38;44.74
17781;BME280;8498;52.516;13.790;2023-05-25T17:26:56;101801.44;;;21.31;44.56
17781;BME280;8498;52.516;13.790;2023-05-25T17:32:19;101801.50;;;21.02;45.46
17781;BME280;8498;52.516;13.790;2023-05-25T17:37:41;101807.03;;;21.20;45.61
17781;BME280;8498;52.516;13.790;2023-05-25T17:43:04;101811.72;;;20.99;45.44
17781;BME280;8498;52.516;13.790;2023-05-25T17:48:27;101812.31;;;20.83;45.94
17781;BME280;8498;52.516;13.790;2023-05-25T17:53:49;101820.72;;;20.80;46.22
17781;BME280;8498;52.516;13.790;2023-05-25T17:59:12;101834.22;;;20.70;46.80
17781;BME280;8498;52.516;13.790;2023-05-25T18:04:34;101830.53;;;20.52;47.29
17781;BME280;8498;52.516;13.790;2023-05-25T18:09:57;101838.47;;;20.44;48.34
17781;BME280;8498;52.516;13.790;2023-05-25T18:15:20;101837.25;;;20.27;49.00
17781;BME280;8498;52.516;13.790;2023-05-25T18:20:43;101842.78;;;20.16;48.95
17781;BME280;8498;52.516;13.790;2023-05-25T18:26:08;101847.25;;;19.96;49.56
17781;BME280;8498;52.516;13.790;2023-05-25T18:31:30;101839.28;;;19.85;49.45
17781;BME280;8498;52.516;13.790;2023-05-25T18:36:54;101833.84;;;19.75;50.11
17781;BME280;8498;52.516;13.790;2023-05-25T18:42:16;101844.72;;;19.64;50.40
17781;BME280;8498;52.516;13.790;2023-05-25T18:47:39;101851.47;;;19.49;51.13
17781;BME280;8498;52.516;13.790;2023-05-25T18:53:05;101849.63;;;19.29;51.91
17781;BME280;8498;52.516;13.790;2023-05-25T18:58:31;101851.47;;;19.08;52.86
17781;BME280;8498;52.516;13.790;2023-05-25T19:03:54;101863.53;;;18.92;53.58
17781;BME280;8498;52.516;13.790;2023-05-25T19:09:20;101868.75;;;18.73;54.40
17781;BME280;8498;52.516;13.790;2023-05-25T19:14:43;101874.06;;;18.63;55.48
17781;BME280;8498;52.516;13.790;2023-05-25T19:20:05;101875.19;;;18.39;56.35
17781;BME280;8498;52.516;13.790;2023-05-25T19:25:28;101876.44;;;18.23;57.29
17781;BME280;8498;52.516;13.790;2023-05-25T19:30:51;101886.25;;;18.13;58.27
17781;BME280;8498;52.516;13.790;2023-05-25T19:36:14;101891.38;;;17.83;59.60
17781;BME280;8498;52.516;13.790;2023-05-25T19:41:37;101889.13;;;17.54;61.40
17781;BME280;8498;52.516;13.790;2023-05-25T19:46:59;101896.19;;;17.33;62.63
17781;BME280;8498;52.516;13.790;2023-05-25T19:52:22;101900.00;;;17.07;64.50
17781;BME280;8498;52.516;13.790;2023-05-25T19:57:44;101895.06;;;16.90;65.33
17781;BME280;8498;52.516;13.790;2023-05-25T20:03:07;101891.78;;;16.73;65.95
17781;BME280;8498;52.516;13.790;2023-05-25T20:08:29;101895.81;;;16.55;66.87
17781;BME280;8498;52.516;13.790;2023-05-25T20:13:52;101908.56;;;16.28;68.18
17781;BME280;8498;52.516;13.790;2023-05-25T20:19:16;101923.94;;;16.00;69.85
17781;BME280;8498;52.516;13.790;2023-05-25T20:24:40;101923.22;;;15.86;71.04
17781;BME280;8498;52.516;13.790;2023-05-25T20:30:02;101928.47;;;15.74;71.65
17781;BME280;8498;52.516;13.790;2023-05-25T20:35:25;101938.75;;;15.68;71.96
17781;BME280;8498;52.516;13.790;2023-05-25T20:40:47;101935.97;;;15.57;72.16
17781;BME280;8498;52.516;13.790;2023-05-25T20:46:10;101935.06;;;15.43;72.64
17781;BME280;8498;52.516;13.790;2023-05-25T20:51:32;101943.94;;;15.31;73.65
17781;BME280;8498;52.516;13.790;2023-05-25T20:56:54;101941.56;;;15.14;74.49
17781;BME280;8498;52.516;13.790;2023-05-25T21:02:17;101944.94;;;15.03;74.38
17781;BME280;8498;52.516;13.790;2023-05-25T21:07:39;101940.31;;;14.93;74.36
17781;BME280;8498;52.516;13.790;2023-05-25T21:13:02;101943.88;;;14.79;74.89
17781;BME280;8498;52.516;13.790;2023-05-25T21:18:24;101943.44;;;14.73;75.01
17781;BME280;8498;52.516;13.790;2023-05-25T21:23:47;101951.91;;;14.52;75.81
17781;BME280;8498;52.516;13.790;2023-05-25T21:29:09;101946.94;;;14.46;76.15
17781;BME280;8498;52.516;13.790;2023-05-25T21:34:32;101948.44;;;14.36;76.28
17781;BME280;8498;52.516;13.790;2023-05-25T21:39:54;101956.66;;;14.33;76.93
17781;BME280;8498;52.516;13.790;2023-05-25T21:45:16;101957.72;;;14.30;76.95
17781;BME280;8498;52.516;13.790;2023-05-25T21:50:39;101959.16;;;14.22;77.41
17781;BME280;8498;52.516;13.790;2023-05-25T21:56:01;101964.38;;;14.23;77.70
17781;BME280;8498;52.516;13.790;2023-05-25T22:01:24;101970.22;;;14.16;78.60
17781;BME280;8498;52.516;13.790;2023-05-25T22:06:47;101975.56;;;14.16;79.65
17781;BME280;8498;52.516;13.790;2023-05-25T22:12:10;101974.34;;;14.21;79.21
17781;BME280;8498;52.516;13.790;2023-05-25T22:17:33;101981.88;;;14.29;78.75
17781;BME280;8498;52.516;13.790;2023-05-25T22:22:56;101976.53;;;14.29;78.62
17781;BME280;8498;52.516;13.790;2023-05-25T22:28:18;101980.56;;;14.22;78.63
17781;BME280;8498;52.516;13.790;2023-05-25T22:33:41;101983.59;;;14.30;78.74
17781;BME280;8498;52.516;13.790;2023-05-25T22:39:03;101980.34;;;14.25;78.78
17781;BME280;8498;52.516;13.790;2023-05-25T22:44:26;101982.25;;;14.23;78.75
17781;BME280;8498;52.516;13.790;2023-05-25T22:49:48;101985.78;;;14.09;79.35
17781;BME280;8498;52.516;13.790;2023-05-25T22:55:10;101989.13;;;13.99;79.59
17781;BME280;8498;52.516;13.790;2023-05-25T23:00:33;101989.41;;;13.94;79.31
17781;BME280;8498;52.516;13.790;2023-05-25T23:05:56;101990.91;;;13.84;79.31
17781;BME280;8498;52.516;13.790;2023-05-25T23:11:18;101994.44;;;13.70;79.96
17781;BME280;8498;52.516;13.790;2023-05-25T23:16:40;101999.66;;;13.57;80.43
17781;BME280;8498;52.516;13.790;2023-05-25T23:22:03;101994.09;;;13.46;80.81
17781;BME280;8498;52.516;13.790;2023-05-25T23:27:25;101986.81;;;13.34;80.92
17781;BME280;8498;52.516;13.790;2023-05-25T23:32:48;101991.81;;;13.25;80.76
17781;BME280;8498;52.516;13.790;2023-05-25T23:38:11;102001.97;;;13.02;81.40
17781;BME280;8498;52.516;13.790;2023-05-25T23:43:36;101978.25;;;12.98;81.42
17781;BME280;8498;52.516;13.790;2023-05-25T23:48:58;101990.28;;;12.89;81.31
17781;BME280;8498;52.516;13.790;2023-05-25T23:54:20;101989.44;;;12.73;81.26
17781;BME280;8498;52.516;13.790;2023-05-25T23:59:43;101986.00;;;12.55;81.70
